Minatitlan Airport
MMMT : now visible

Airfield :











YOU CAN JOIN US ON...

 
LOGIN :

Register | Disclaimer

   EN    FR    IT 

 









Legend :    VFR   Marginal VFR   IFR   Intensive IFR   Very Intensive IFR
Visi :
Ceiling :
>= 8 km
>= 3000ft
5 to 8 km
1000 to 3000 ft
1500m to 5 km
500 to 1000 ft
800 to 1500m
200 to 500 ft
< 800m
< 200 ft
Symbols :   Thunderstorms  Fog  Heavy snow  Heavy precipitations  Wind > 20 kt






- Airport Elevation : 36 ft
- IATA code : MTT


MMMT - Minatitlan

CURRENT METAR :
  • 251843Z 19010KT 7SM SKC 37/24 A2969

EXPIRED METARs :
  • 251746Z 19010KT 7SM SKC 36/21 A2970 RMK SLP132 57013 963
  • 251643Z 19010KT 7SM SKC 35/21 A2970

TAF TAF MMMT
Valid from the 25 at 18:00 until the 26 at 18:00 UTC


251659Z 2518/2618 19012KT P6SM SKC
FM252100 02010KT P6SM SCT030
FM260300 18010KT P6SM SKC
FM261200 16010KT 5SM HZ SCT020
MMFR FIR / North America



MET'MAP, your aeronautical weather chart ! - Copyright ORBIFLY December 2007 - Disclaimer

ORBIFLY MET'MAP TEAM :

Programming & Development : Alexandra Zaïnal
Concept & original design : Baudouin d'Aumeries
Assistance for programming : Marc-Olivier Méhu
Technical & hardware support : Manuel Goepfert

Contact : metmap@orbifly.com




SOURCES & CREDITS :

   NOAA       Earth
Advisory